sensor_id;sensor_type;location;lat;lon;timestamp;temperature;humidity
23873;DHT22;42884;50.718;4.630;2023-04-24T00:01:43;10.40;99.90
23873;DHT22;42884;50.718;4.630;2023-04-24T00:04:09;10.40;99.90
23873;DHT22;42884;50.718;4.630;2023-04-24T00:06:36;10.30;99.90
23873;DHT22;42884;50.718;4.630;2023-04-24T00:09:03;10.50;99.90
23873;DHT22;42884;50.718;4.630;2023-04-24T00:11:29;10.40;99.90
23873;DHT22;42884;50.718;4.630;2023-04-24T00:13:55;10.30;99.90
23873;DHT22;42884;50.718;4.630;2023-04-24T00:16:22;10.50;99.90
23873;DHT22;42884;50.718;4.630;2023-04-24T00:18:47;10.50;99.90
23873;DHT22;42884;50.718;4.630;2023-04-24T00:21:14;10.40;99.90
23873;DHT22;42884;50.718;4.630;2023-04-24T00:23:41;10.30;99.90
23873;DHT22;42884;50.718;4.630;2023-04-24T00:26:07;10.20;99.90
23873;DHT22;42884;50.718;4.630;2023-04-24T00:28:33;10.30;99.90
23873;DHT22;42884;50.718;4.630;2023-04-24T00:30:59;10.40;99.90
23873;DHT22;42884;50.718;4.630;2023-04-24T00:33:24;10.40;99.90
23873;DHT22;42884;50.718;4.630;2023-04-24T00:35:50;10.40;99.90
23873;DHT22;42884;50.718;4.630;2023-04-24T00:38:16;10.50;99.90
23873;DHT22;42884;50.718;4.630;2023-04-24T00:40:41;10.60;99.90
23873;DHT22;42884;50.718;4.630;2023-04-24T00:43:07;10.50;99.90
23873;DHT22;42884;50.718;4.630;2023-04-24T00:45:33;10.40;99.90
23873;DHT22;42884;50.718;4.630;2023-04-24T00:48:00;10.40;99.90
23873;DHT22;42884;50.718;4.630;2023-04-24T00:50:26;10.40;99.90
23873;DHT22;42884;50.718;4.630;2023-04-24T00:52:52;10.50;99.90
23873;DHT22;42884;50.718;4.630;2023-04-24T00:55:19;10.50;99.90
23873;DHT22;42884;50.718;4.630;2023-04-24T00:57:45;10.40;99.90
23873;DHT22;42884;50.718;4.630;2023-04-24T01:00:12;10.50;99.90
23873;DHT22;42884;50.718;4.630;2023-04-24T01:02:44;10.50;99.90
23873;DHT22;42884;50.718;4.630;2023-04-24T01:05:11;10.60;99.90
23873;DHT22;42884;50.718;4.630;2023-04-24T01:07:39;10.50;99.90
23873;DHT22;42884;50.718;4.630;2023-04-24T01:10:07;10.40;99.90
23873;DHT22;42884;50.718;4.630;2023-04-24T01:12:33;10.40;99.90
23873;DHT22;42884;50.718;4.630;2023-04-24T01:14:59;10.50;99.90
23873;DHT22;42884;50.718;4.630;2023-04-24T01:17:25;10.30;99.90
23873;DHT22;42884;50.718;4.630;2023-04-24T01:19:51;10.30;99.90
23873;DHT22;42884;50.718;4.630;2023-04-24T01:22:19;10.30;99.90
23873;DHT22;42884;50.718;4.630;2023-04-24T01:24:46;10.20;99.90
23873;DHT22;42884;50.718;4.630;2023-04-24T01:27:12;10.40;99.90
23873;DHT22;42884;50.718;4.630;2023-04-24T01:29:37;10.50;99.90
23873;DHT22;42884;50.718;4.630;2023-04-24T01:32:04;10.40;99.90
23873;DHT22;42884;50.718;4.630;2023-04-24T01:34:32;10.20;99.90
23873;DHT22;42884;50.718;4.630;2023-04-24T01:36:58;10.20;99.90
23873;DHT22;42884;50.718;4.630;2023-04-24T01:39:23;10.20;99.90
23873;DHT22;42884;50.718;4.630;2023-04-24T01:41:51;10.20;99.90
23873;DHT22;42884;50.718;4.630;2023-04-24T01:44:18;10.20;99.90
23873;DHT22;42884;50.718;4.630;2023-04-24T01:46:44;10.10;99.90
23873;DHT22;42884;50.718;4.630;2023-04-24T01:49:10;9.90;99.90
23873;DHT22;42884;50.718;4.630;2023-04-24T01:51:36;9.90;99.90
23873;DHT22;42884;50.718;4.630;2023-04-24T01:54:02;9.90;99.90
23873;DHT22;42884;50.718;4.630;2023-04-24T01:56:31;9.90;99.90
23873;DHT22;42884;50.718;4.630;2023-04-24T01:58:59;9.90;99.90
23873;DHT22;42884;50.718;4.630;2023-04-24T02:01:26;10.00;99.90
23873;DHT22;42884;50.718;4.630;2023-04-24T02:03:51;9.80;99.90
23873;DHT22;42884;50.718;4.630;2023-04-24T02:06:17;9.90;99.90
23873;DHT22;42884;50.718;4.630;2023-04-24T02:08:44;9.80;99.90
23873;DHT22;42884;50.718;4.630;2023-04-24T02:11:10;9.70;99.90
23873;DHT22;42884;50.718;4.630;2023-04-24T02:13:35;9.60;99.90
23873;DHT22;42884;50.718;4.630;2023-04-24T02:16:01;9.60;99.90
23873;DHT22;42884;50.718;4.630;2023-04-24T02:18:27;9.50;99.90
23873;DHT22;42884;50.718;4.630;2023-04-24T02:20:53;9.60;99.90
23873;DHT22;42884;50.718;4.630;2023-04-24T02:23:19;9.70;99.90
23873;DHT22;42884;50.718;4.630;2023-04-24T02:25:45;9.60;99.90
23873;DHT22;42884;50.718;4.630;2023-04-24T02:28:11;9.60;99.90
23873;DHT22;42884;50.718;4.630;2023-04-24T02:30:37;9.50;99.90
23873;DHT22;42884;50.718;4.630;2023-04-24T02:33:02;9.50;99.90
23873;DHT22;42884;50.718;4.630;2023-04-24T02:35:28;9.70;99.90
23873;DHT22;42884;50.718;4.630;2023-04-24T02:37:55;9.70;99.90
23873;DHT22;42884;50.718;4.630;2023-04-24T02:40:20;9.70;99.90
23873;DHT22;42884;50.718;4.630;2023-04-24T02:42:46;9.60;99.90
23873;DHT22;42884;50.718;4.630;2023-04-24T02:45:12;9.60;99.90
23873;DHT22;42884;50.718;4.630;2023-04-24T02:47:38;9.70;99.90
23873;DHT22;42884;50.718;4.630;2023-04-24T02:50:04;9.60;99.90
23873;DHT22;42884;50.718;4.630;2023-04-24T02:52:30;9.50;99.90
23873;DHT22;42884;50.718;4.630;2023-04-24T02:54:55;9.50;99.90
23873;DHT22;42884;50.718;4.630;2023-04-24T02:57:21;9.50;99.90
23873;DHT22;42884;50.718;4.630;2023-04-24T02:59:47;9.40;99.90
23873;DHT22;42884;50.718;4.630;2023-04-24T03:02:13;9.40;99.90
23873;DHT22;42884;50.718;4.630;2023-04-24T03:04:38;9.40;99.90
23873;DHT22;42884;50.718;4.630;2023-04-24T03:07:05;9.30;99.90
23873;DHT22;42884;50.718;4.630;2023-04-24T03:09:31;9.30;99.90
23873;DHT22;42884;50.718;4.630;2023-04-24T03:11:57;9.20;99.90
23873;DHT22;42884;50.718;4.630;2023-04-24T03:14:23;9.40;99.90
23873;DHT22;42884;50.718;4.630;2023-04-24T03:16:49;9.40;99.90
23873;DHT22;42884;50.718;4.630;2023-04-24T03:19:15;9.30;99.90
23873;DHT22;42884;50.718;4.630;2023-04-24T03:21:41;9.30;99.90
23873;DHT22;42884;50.718;4.630;2023-04-24T03:24:08;9.30;99.90
23873;DHT22;42884;50.718;4.630;2023-04-24T03:26:34;9.40;99.90
23873;DHT22;42884;50.718;4.630;2023-04-24T03:29:00;9.50;99.90
23873;DHT22;42884;50.718;4.630;2023-04-24T03:31:26;9.60;99.90
23873;DHT22;42884;50.718;4.630;2023-04-24T03:33:52;9.40;99.90
23873;DHT22;42884;50.718;4.630;2023-04-24T03:36:17;9.40;99.90
23873;DHT22;42884;50.718;4.630;2023-04-24T03:38:44;9.40;99.90
23873;DHT22;42884;50.718;4.630;2023-04-24T03:41:10;9.30;99.90
23873;DHT22;42884;50.718;4.630;2023-04-24T03:43:37;9.40;99.90
23873;DHT22;42884;50.718;4.630;2023-04-24T03:46:03;9.40;99.90
23873;DHT22;42884;50.718;4.630;2023-04-24T03:48:29;9.30;99.90
23873;DHT22;42884;50.718;4.630;2023-04-24T03:50:55;9.40;99.90
23873;DHT22;42884;50.718;4.630;2023-04-24T03:53:20;9.50;99.90
23873;DHT22;42884;50.718;4.630;2023-04-24T03:55:46;9.60;99.90
23873;DHT22;42884;50.718;4.630;2023-04-24T03:58:12;9.50;99.90
23873;DHT22;42884;50.718;4.630;2023-04-24T04:00:40;9.50;99.90
23873;DHT22;42884;50.718;4.630;2023-04-24T04:03:06;9.60;99.90
23873;DHT22;42884;50.718;4.630;2023-04-24T04:05:31;9.50;99.90
23873;DHT22;42884;50.718;4.630;2023-04-24T04:07:57;9.40;99.90
23873;DHT22;42884;50.718;4.630;2023-04-24T04:10:23;9.40;99.90
23873;DHT22;42884;50.718;4.630;2023-04-24T04:12:49;9.40;99.90
23873;DHT22;42884;50.718;4.630;2023-04-24T04:15:14;9.40;99.90
23873;DHT22;42884;50.718;4.630;2023-04-24T04:17:40;9.50;99.90
23873;DHT22;42884;50.718;4.630;2023-04-24T04:20:07;9.60;99.90
23873;DHT22;42884;50.718;4.630;2023-04-24T04:22:35;9.60;99.90
23873;DHT22;42884;50.718;4.630;2023-04-24T04:25:02;9.70;99.90
23873;DHT22;42884;50.718;4.630;2023-04-24T04:27:28;9.70;99.90
23873;DHT22;42884;50.718;4.630;2023-04-24T04:30:00;9.60;99.90
23873;DHT22;42884;50.718;4.630;2023-04-24T04:32:33;9.70;99.90
23873;DHT22;42884;50.718;4.630;2023-04-24T04:35:03;9.70;99.90
23873;DHT22;42884;50.718;4.630;2023-04-24T04:37:30;9.70;99.90
23873;DHT22;42884;50.718;4.630;2023-04-24T04:39:59;9.80;99.90
23873;DHT22;42884;50.718;4.630;2023-04-24T04:42:26;9.80;99.90
23873;DHT22;42884;50.718;4.630;2023-04-24T04:44:53;9.60;99.90
23873;DHT22;42884;50.718;4.630;2023-04-24T04:47:21;9.70;99.90
23873;DHT22;42884;50.718;4.630;2023-04-24T04:49:50;9.80;99.90
23873;DHT22;42884;50.718;4.630;2023-04-24T04:52:19;9.80;99.90
23873;DHT22;42884;50.718;4.630;2023-04-24T04:54:45;9.90;99.90
23873;DHT22;42884;50.718;4.630;2023-04-24T04:57:11;9.90;99.90
23873;DHT22;42884;50.718;4.630;2023-04-24T04:59:37;9.90;99.90
23873;DHT22;42884;50.718;4.630;2023-04-24T05:02:03;10.00;99.90
23873;DHT22;42884;50.718;4.630;2023-04-24T05:04:29;10.00;99.90
23873;DHT22;42884;50.718;4.630;2023-04-24T05:06:55;10.00;99.90
23873;DHT22;42884;50.718;4.630;2023-04-24T05:09:21;10.00;99.90
23873;DHT22;42884;50.718;4.630;2023-04-24T05:11:47;9.90;99.90
23873;DHT22;42884;50.718;4.630;2023-04-24T05:14:13;10.00;99.90
23873;DHT22;42884;50.718;4.630;2023-04-24T05:16:39;10.00;99.90
23873;DHT22;42884;50.718;4.630;2023-04-24T05:19:06;9.90;99.90
23873;DHT22;42884;50.718;4.630;2023-04-24T05:21:31;9.80;99.90
23873;DHT22;42884;50.718;4.630;2023-04-24T05:23:57;9.80;99.90
23873;DHT22;42884;50.718;4.630;2023-04-24T05:26:23;9.80;99.90
23873;DHT22;42884;50.718;4.630;2023-04-24T05:28:49;9.70;99.90
23873;DHT22;42884;50.718;4.630;2023-04-24T05:31:15;9.70;99.90
23873;DHT22;42884;50.718;4.630;2023-04-24T05:33:41;9.80;99.90
23873;DHT22;42884;50.718;4.630;2023-04-24T05:36:07;9.70;99.90
23873;DHT22;42884;50.718;4.630;2023-04-24T05:38:33;9.70;99.90
23873;DHT22;42884;50.718;4.630;2023-04-24T05:40:58;9.70;99.90
23873;DHT22;42884;50.718;4.630;2023-04-24T05:43:24;9.70;99.90
23873;DHT22;42884;50.718;4.630;2023-04-24T05:45:50;9.70;99.90
23873;DHT22;42884;50.718;4.630;2023-04-24T05:48:16;9.70;99.90
23873;DHT22;42884;50.718;4.630;2023-04-24T05:50:42;9.80;99.90
23873;DHT22;42884;50.718;4.630;2023-04-24T05:53:07;9.80;99.90
23873;DHT22;42884;50.718;4.630;2023-04-24T05:55:34;9.80;99.90
23873;DHT22;42884;50.718;4.630;2023-04-24T05:58:01;9.80;99.90
23873;DHT22;42884;50.718;4.630;2023-04-24T06:00:26;9.70;99.90
23873;DHT22;42884;50.718;4.630;2023-04-24T06:02:52;9.60;99.90
23873;DHT22;42884;50.718;4.630;2023-04-24T06:05:19;9.80;99.90
23873;DHT22;42884;50.718;4.630;2023-04-24T06:07:45;9.70;99.90
23873;DHT22;42884;50.718;4.630;2023-04-24T06:10:12;9.70;99.90
23873;DHT22;42884;50.718;4.630;2023-04-24T06:12:38;9.60;99.90
23873;DHT22;42884;50.718;4.630;2023-04-24T06:15:04;9.70;99.90
23873;DHT22;42884;50.718;4.630;2023-04-24T06:17:31;9.70;99.90
23873;DHT22;42884;50.718;4.630;2023-04-24T06:19:57;9.70;99.90
23873;DHT22;42884;50.718;4.630;2023-04-24T06:22:23;9.60;99.90
23873;DHT22;42884;50.718;4.630;2023-04-24T06:24:49;9.70;99.90
23873;DHT22;42884;50.718;4.630;2023-04-24T06:27:14;9.70;99.90
23873;DHT22;42884;50.718;4.630;2023-04-24T06:29:40;9.70;99.90
23873;DHT22;42884;50.718;4.630;2023-04-24T06:32:06;9.70;99.90
23873;DHT22;42884;50.718;4.630;2023-04-24T06:34:32;9.80;99.90
23873;DHT22;42884;50.718;4.630;2023-04-24T06:36:59;9.70;99.90
23873;DHT22;42884;50.718;4.630;2023-04-24T06:39:25;9.70;99.90
23873;DHT22;42884;50.718;4.630;2023-04-24T06:41:51;9.70;99.90
23873;DHT22;42884;50.718;4.630;2023-04-24T06:44:16;9.70;99.90
23873;DHT22;42884;50.718;4.630;2023-04-24T06:46:42;9.60;99.90
23873;DHT22;42884;50.718;4.630;2023-04-24T06:49:08;9.50;99.90
23873;DHT22;42884;50.718;4.630;2023-04-24T06:51:34;9.60;99.90
23873;DHT22;42884;50.718;4.630;2023-04-24T06:54:00;9.60;99.90
23873;DHT22;42884;50.718;4.630;2023-04-24T06:56:26;9.60;99.90
23873;DHT22;42884;50.718;4.630;2023-04-24T06:58:52;9.60;99.90
23873;DHT22;42884;50.718;4.630;2023-04-24T07:01:18;9.70;99.90
23873;DHT22;42884;50.718;4.630;2023-04-24T07:03:44;9.70;99.90
23873;DHT22;42884;50.718;4.630;2023-04-24T07:06:13;9.70;99.90
23873;DHT22;42884;50.718;4.630;2023-04-24T07:08:39;9.60;99.90
23873;DHT22;42884;50.718;4.630;2023-04-24T07:11:07;9.60;99.90
23873;DHT22;42884;50.718;4.630;2023-04-24T07:13:32;9.80;99.90
23873;DHT22;42884;50.718;4.630;2023-04-24T07:16:00;9.90;99.90
23873;DHT22;42884;50.718;4.630;2023-04-24T07:18:26;9.90;99.90
23873;DHT22;42884;50.718;4.630;2023-04-24T07:20:52;9.90;99.90
23873;DHT22;42884;50.718;4.630;2023-04-24T07:23:18;10.10;99.90
23873;DHT22;42884;50.718;4.630;2023-04-24T07:25:43;10.10;99.90
23873;DHT22;42884;50.718;4.630;2023-04-24T07:28:09;10.20;99.90
23873;DHT22;42884;50.718;4.630;2023-04-24T07:30:35;10.20;99.90
23873;DHT22;42884;50.718;4.630;2023-04-24T07:33:01;10.40;99.90
23873;DHT22;42884;50.718;4.630;2023-04-24T07:35:27;10.40;99.90
23873;DHT22;42884;50.718;4.630;2023-04-24T07:37:55;10.40;99.90
23873;DHT22;42884;50.718;4.630;2023-04-24T07:40:22;10.20;99.90
23873;DHT22;42884;50.718;4.630;2023-04-24T07:42:48;10.20;99.90
23873;DHT22;42884;50.718;4.630;2023-04-24T07:45:14;10.30;99.90
23873;DHT22;42884;50.718;4.630;2023-04-24T07:47:41;10.40;99.90
23873;DHT22;42884;50.718;4.630;2023-04-24T07:50:09;10.60;99.90
23873;DHT22;42884;50.718;4.630;2023-04-24T07:52:35;10.60;99.90
23873;DHT22;42884;50.718;4.630;2023-04-24T07:55:01;10.70;99.90
23873;DHT22;42884;50.718;4.630;2023-04-24T07:57:27;10.80;99.90
23873;DHT22;42884;50.718;4.630;2023-04-24T07:59:54;10.70;99.90
23873;DHT22;42884;50.718;4.630;2023-04-24T08:02:20;10.60;99.90
23873;DHT22;42884;50.718;4.630;2023-04-24T08:04:54;10.70;99.90
23873;DHT22;42884;50.718;4.630;2023-04-24T08:07:20;10.70;99.90
23873;DHT22;42884;50.718;4.630;2023-04-24T08:09:46;10.50;99.90
23873;DHT22;42884;50.718;4.630;2023-04-24T08:12:12;10.50;99.90
23873;DHT22;42884;50.718;4.630;2023-04-24T08:14:37;10.40;99.90
23873;DHT22;42884;50.718;4.630;2023-04-24T08:17:03;10.40;99.90
23873;DHT22;42884;50.718;4.630;2023-04-24T08:19:29;10.40;99.90
23873;DHT22;42884;50.718;4.630;2023-04-24T08:21:55;10.40;99.90
23873;DHT22;42884;50.718;4.630;2023-04-24T08:24:21;10.60;99.90
23873;DHT22;42884;50.718;4.630;2023-04-24T08:26:47;10.70;99.90
23873;DHT22;42884;50.718;4.630;2023-04-24T08:29:16;10.70;99.90
23873;DHT22;42884;50.718;4.630;2023-04-24T08:31:41;10.70;99.90
23873;DHT22;42884;50.718;4.630;2023-04-24T08:34:07;10.80;99.90
23873;DHT22;42884;50.718;4.630;2023-04-24T08:36:33;10.80;99.90
23873;DHT22;42884;50.718;4.630;2023-04-24T08:38:59;10.80;99.90
23873;DHT22;42884;50.718;4.630;2023-04-24T08:41:24;10.90;99.90
23873;DHT22;42884;50.718;4.630;2023-04-24T08:43:52;11.10;99.90
23873;DHT22;42884;50.718;4.630;2023-04-24T08:46:19;11.40;99.90
23873;DHT22;42884;50.718;4.630;2023-04-24T08:48:45;11.50;99.90
23873;DHT22;42884;50.718;4.630;2023-04-24T08:51:11;11.60;99.90
23873;DHT22;42884;50.718;4.630;2023-04-24T08:53:37;11.70;99.90
23873;DHT22;42884;50.718;4.630;2023-04-24T08:56:03;11.80;99.90
23873;DHT22;42884;50.718;4.630;2023-04-24T08:58:30;11.80;99.90
23873;DHT22;42884;50.718;4.630;2023-04-24T09:00:57;11.80;99.90
23873;DHT22;42884;50.718;4.630;2023-04-24T09:03:23;12.00;99.90
23873;DHT22;42884;50.718;4.630;2023-04-24T09:05:50;12.10;99.90
23873;DHT22;42884;50.718;4.630;2023-04-24T09:08:19;12.10;99.90
23873;DHT22;42884;50.718;4.630;2023-04-24T09:10:45;12.20;99.90
23873;DHT22;42884;50.718;4.630;2023-04-24T09:13:11;12.80;99.90
23873;DHT22;42884;50.718;4.630;2023-04-24T09:15:40;13.00;99.90
23873;DHT22;42884;50.718;4.630;2023-04-24T09:18:06;13.20;99.90
23873;DHT22;42884;50.718;4.630;2023-04-24T09:20:33;13.10;99.90
23873;DHT22;42884;50.718;4.630;2023-04-24T09:22:58;12.80;99.90
23873;DHT22;42884;50.718;4.630;2023-04-24T09:25:32;13.00;99.90
23873;DHT22;42884;50.718;4.630;2023-04-24T09:28:01;13.50;99.90
23873;DHT22;42884;50.718;4.630;2023-04-24T09:30:29;14.00;99.90
23873;DHT22;42884;50.718;4.630;2023-04-24T09:33:12;14.60;99.90
23873;DHT22;42884;50.718;4.630;2023-04-24T09:35:41;15.20;99.90
23873;DHT22;42884;50.718;4.630;2023-04-24T09:38:07;15.90;99.90
23873;DHT22;42884;50.718;4.630;2023-04-24T09:40:35;16.00;99.90
23873;DHT22;42884;50.718;4.630;2023-04-24T09:43:01;15.70;99.90
23873;DHT22;42884;50.718;4.630;2023-04-24T09:45:38;15.40;99.90
23873;DHT22;42884;50.718;4.630;2023-04-24T09:48:05;14.70;99.90
23873;DHT22;42884;50.718;4.630;2023-04-24T09:50:32;14.10;99.90
23873;DHT22;42884;50.718;4.630;2023-04-24T09:52:59;13.80;99.90
23873;DHT22;42884;50.718;4.630;2023-04-24T09:55:27;13.50;99.90
23873;DHT22;42884;50.718;4.630;2023-04-24T09:57:57;13.20;99.90
23873;DHT22;42884;50.718;4.630;2023-04-24T10:00:31;13.30;99.90
23873;DHT22;42884;50.718;4.630;2023-04-24T10:03:01;14.10;99.90
23873;DHT22;42884;50.718;4.630;2023-04-24T10:08:05;14.30;99.90
23873;DHT22;42884;50.718;4.630;2023-04-24T10:10:33;13.90;99.90
23873;DHT22;42884;50.718;4.630;2023-04-24T10:12:59;13.90;99.90
23873;DHT22;42884;50.718;4.630;2023-04-24T10:15:26;13.80;99.90
23873;DHT22;42884;50.718;4.630;2023-04-24T10:17:52;14.00;99.90
23873;DHT22;42884;50.718;4.630;2023-04-24T10:20:23;14.20;99.90
23873;DHT22;42884;50.718;4.630;2023-04-24T10:22:51;14.30;99.90
23873;DHT22;42884;50.718;4.630;2023-04-24T10:25:22;14.50;99.90
23873;DHT22;42884;50.718;4.630;2023-04-24T10:27:50;14.30;99.90
23873;DHT22;42884;50.718;4.630;2023-04-24T10:30:16;14.60;99.90
23873;DHT22;42884;50.718;4.630;2023-04-24T10:32:42;14.70;99.90
23873;DHT22;42884;50.718;4.630;2023-04-24T10:35:09;14.60;99.90
23873;DHT22;42884;50.718;4.630;2023-04-24T10:37:39;14.60;99.90
23873;DHT22;42884;50.718;4.630;2023-04-24T10:40:07;14.60;99.90
23873;DHT22;42884;50.718;4.630;2023-04-24T10:42:34;14.50;99.90
23873;DHT22;42884;50.718;4.630;2023-04-24T10:45:04;14.50;99.90
23873;DHT22;42884;50.718;4.630;2023-04-24T10:47:30;14.30;99.90
23873;DHT22;42884;50.718;4.630;2023-04-24T10:50:09;14.20;99.90
23873;DHT22;42884;50.718;4.630;2023-04-24T10:52:46;14.20;99.90
23873;DHT22;42884;50.718;4.630;2023-04-24T10:55:13;14.20;99.90
23873;DHT22;42884;50.718;4.630;2023-04-24T10:58:01;14.30;99.90
23873;DHT22;42884;50.718;4.630;2023-04-24T11:00:28;14.70;99.90
23873;DHT22;42884;50.718;4.630;2023-04-24T11:02:53;14.90;99.90
23873;DHT22;42884;50.718;4.630;2023-04-24T11:05:21;14.80;99.90
23873;DHT22;42884;50.718;4.630;2023-04-24T11:10:44;14.80;99.90
23873;DHT22;42884;50.718;4.630;2023-04-24T11:13:10;14.60;99.90
23873;DHT22;42884;50.718;4.630;2023-04-24T11:15:36;14.50;99.90
23873;DHT22;42884;50.718;4.630;2023-04-24T11:18:01;14.20;99.90
23873;DHT22;42884;50.718;4.630;2023-04-24T11:20:27;13.80;99.90
23873;DHT22;42884;50.718;4.630;2023-04-24T11:22:54;13.80;99.90
23873;DHT22;42884;50.718;4.630;2023-04-24T11:25:21;13.90;99.90
23873;DHT22;42884;50.718;4.630;2023-04-24T11:27:50;13.80;99.90
23873;DHT22;42884;50.718;4.630;2023-04-24T11:30:29;13.70;99.90
23873;DHT22;42884;50.718;4.630;2023-04-24T11:33:02;13.90;99.90
23873;DHT22;42884;50.718;4.630;2023-04-24T11:35:29;14.20;99.90
23873;DHT22;42884;50.718;4.630;2023-04-24T11:37:56;14.40;99.90
23873;DHT22;42884;50.718;4.630;2023-04-24T11:40:22;14.80;99.90
23873;DHT22;42884;50.718;4.630;2023-04-24T11:42:50;15.00;99.90
23873;DHT22;42884;50.718;4.630;2023-04-24T11:45:25;14.90;99.90
23873;DHT22;42884;50.718;4.630;2023-04-24T11:47:51;14.30;99.90
23873;DHT22;42884;50.718;4.630;2023-04-24T11:50:18;14.10;99.90
23873;DHT22;42884;50.718;4.630;2023-04-24T11:52:46;13.90;99.90
23873;DHT22;42884;50.718;4.630;2023-04-24T11:57:45;13.90;99.90
23873;DHT22;42884;50.718;4.630;2023-04-24T12:00:16;14.00;99.90
23873;DHT22;42884;50.718;4.630;2023-04-24T12:02:42;14.10;99.90
23873;DHT22;42884;50.718;4.630;2023-04-24T12:05:08;14.30;99.90
23873;DHT22;42884;50.718;4.630;2023-04-24T12:07:41;14.50;99.90
23873;DHT22;42884;50.718;4.630;2023-04-24T12:10:08;14.60;99.90
23873;DHT22;42884;50.718;4.630;2023-04-24T12:12:34;14.40;99.90
23873;DHT22;42884;50.718;4.630;2023-04-24T12:15:01;14.30;99.90
23873;DHT22;42884;50.718;4.630;2023-04-24T12:17:29;14.70;99.90
23873;DHT22;42884;50.718;4.630;2023-04-24T12:20:00;15.40;99.90
23873;DHT22;42884;50.718;4.630;2023-04-24T12:22:26;16.20;99.90
23873;DHT22;42884;50.718;4.630;2023-04-24T12:24:57;16.70;99.90
23873;DHT22;42884;50.718;4.630;2023-04-24T12:27:23;17.00;99.90
23873;DHT22;42884;50.718;4.630;2023-04-24T12:29:53;17.70;99.90
23873;DHT22;42884;50.718;4.630;2023-04-24T12:32:19;18.30;99.90
23873;DHT22;42884;50.718;4.630;2023-04-24T12:34:45;18.30;99.90
23873;DHT22;42884;50.718;4.630;2023-04-24T12:37:11;17.90;99.90
23873;DHT22;42884;50.718;4.630;2023-04-24T12:39:37;17.70;99.90
23873;DHT22;42884;50.718;4.630;2023-04-24T12:42:03;17.70;99.90
23873;DHT22;42884;50.718;4.630;2023-04-24T12:44:33;17.40;99.90
23873;DHT22;42884;50.718;4.630;2023-04-24T12:47:00;17.20;99.90
23873;DHT22;42884;50.718;4.630;2023-04-24T12:49:27;17.10;99.90
23873;DHT22;42884;50.718;4.630;2023-04-24T12:51:53;17.80;99.90
23873;DHT22;42884;50.718;4.630;2023-04-24T12:54:19;18.10;99.90
23873;DHT22;42884;50.718;4.630;2023-04-24T12:56:45;18.40;99.90
23873;DHT22;42884;50.718;4.630;2023-04-24T12:59:10;18.30;99.90
23873;DHT22;42884;50.718;4.630;2023-04-24T13:01:36;18.20;99.90
23873;DHT22;42884;50.718;4.630;2023-04-24T13:04:02;18.10;99.90
23873;DHT22;42884;50.718;4.630;2023-04-24T13:06:27;17.40;99.90
23873;DHT22;42884;50.718;4.630;2023-04-24T13:08:53;17.40;99.90
23873;DHT22;42884;50.718;4.630;2023-04-24T13:11:20;17.40;99.90
23873;DHT22;42884;50.718;4.630;2023-04-24T13:13:47;17.10;99.90
23873;DHT22;42884;50.718;4.630;2023-04-24T13:16:13;16.90;99.90
23873;DHT22;42884;50.718;4.630;2023-04-24T13:18:39;16.80;99.90
23873;DHT22;42884;50.718;4.630;2023-04-24T13:21:04;16.70;99.90
23873;DHT22;42884;50.718;4.630;2023-04-24T13:23:30;16.50;99.90
23873;DHT22;42884;50.718;4.630;2023-04-24T13:25:56;16.50;99.90
23873;DHT22;42884;50.718;4.630;2023-04-24T13:28:26;16.50;99.90
23873;DHT22;42884;50.718;4.630;2023-04-24T13:30:53;16.40;99.90
23873;DHT22;42884;50.718;4.630;2023-04-24T13:33:18;16.20;99.90
23873;DHT22;42884;50.718;4.630;2023-04-24T13:35:44;16.10;99.90
23873;DHT22;42884;50.718;4.630;2023-04-24T13:38:10;16.00;99.90
23873;DHT22;42884;50.718;4.630;2023-04-24T13:40:36;16.10;99.90
23873;DHT22;42884;50.718;4.630;2023-04-24T13:43:02;15.90;99.90
23873;DHT22;42884;50.718;4.630;2023-04-24T13:45:28;15.70;99.90
23873;DHT22;42884;50.718;4.630;2023-04-24T13:47:53;15.40;99.90
23873;DHT22;42884;50.718;4.630;2023-04-24T13:50:20;15.00;99.90
23873;DHT22;42884;50.718;4.630;2023-04-24T13:52:46;14.80;99.90
23873;DHT22;42884;50.718;4.630;2023-04-24T13:55:12;14.70;99.90
23873;DHT22;42884;50.718;4.630;2023-04-24T13:57:37;14.60;99.90
23873;DHT22;42884;50.718;4.630;2023-04-24T14:00:04;14.60;99.90
23873;DHT22;42884;50.718;4.630;2023-04-24T14:02:31;14.60;99.90
23873;DHT22;42884;50.718;4.630;2023-04-24T14:04:56;14.60;99.90
23873;DHT22;42884;50.718;4.630;2023-04-24T14:07:22;14.60;99.90
23873;DHT22;42884;50.718;4.630;2023-04-24T14:09:48;14.60;99.90
23873;DHT22;42884;50.718;4.630;2023-04-24T14:12:13;14.40;99.90
23873;DHT22;42884;50.718;4.630;2023-04-24T14:14:41;14.30;99.90
23873;DHT22;42884;50.718;4.630;2023-04-24T14:17:07;14.30;99.90
23873;DHT22;42884;50.718;4.630;2023-04-24T14:19:33;14.10;99.90
23873;DHT22;42884;50.718;4.630;2023-04-24T14:22:00;14.20;99.90
23873;DHT22;42884;50.718;4.630;2023-04-24T14:24:26;14.20;99.90
23873;DHT22;42884;50.718;4.630;2023-04-24T14:26:51;14.30;99.90
23873;DHT22;42884;50.718;4.630;2023-04-24T14:29:17;14.10;99.90
23873;DHT22;42884;50.718;4.630;2023-04-24T14:31:43;14.00;99.90
23873;DHT22;42884;50.718;4.630;2023-04-24T14:34:09;14.10;99.90
23873;DHT22;42884;50.718;4.630;2023-04-24T14:36:35;14.20;99.90
23873;DHT22;42884;50.718;4.630;2023-04-24T14:39:01;14.00;99.90
23873;DHT22;42884;50.718;4.630;2023-04-24T14:41:31;13.90;99.90
23873;DHT22;42884;50.718;4.630;2023-04-24T14:43:58;13.70;99.90
23873;DHT22;42884;50.718;4.630;2023-04-24T14:46:23;13.70;99.90
23873;DHT22;42884;50.718;4.630;2023-04-24T14:48:49;13.70;99.90
23873;DHT22;42884;50.718;4.630;2023-04-24T14:51:15;13.70;99.90
23873;DHT22;42884;50.718;4.630;2023-04-24T14:53:41;13.60;99.90
23873;DHT22;42884;50.718;4.630;2023-04-24T14:56:06;13.70;99.90
23873;DHT22;42884;50.718;4.630;2023-04-24T14:58:32;13.80;99.90
23873;DHT22;42884;50.718;4.630;2023-04-24T15:00:58;13.80;99.90
23873;DHT22;42884;50.718;4.630;2023-04-24T15:03:24;13.70;99.90
23873;DHT22;42884;50.718;4.630;2023-04-24T15:05:52;13.80;99.90
23873;DHT22;42884;50.718;4.630;2023-04-24T15:08:17;13.80;99.90
23873;DHT22;42884;50.718;4.630;2023-04-24T15:10:43;13.80;99.90
23873;DHT22;42884;50.718;4.630;2023-04-24T15:13:10;13.90;99.90
23873;DHT22;42884;50.718;4.630;2023-04-24T15:15:35;14.10;99.90
23873;DHT22;42884;50.718;4.630;2023-04-24T15:18:04;14.50;99.90
23873;DHT22;42884;50.718;4.630;2023-04-24T15:20:30;14.90;99.90
23873;DHT22;42884;50.718;4.630;2023-04-24T15:22:55;15.20;99.90
23873;DHT22;42884;50.718;4.630;2023-04-24T15:25:21;15.50;99.90
23873;DHT22;42884;50.718;4.630;2023-04-24T15:27:47;15.60;99.90
23873;DHT22;42884;50.718;4.630;2023-04-24T15:30:13;15.60;99.90
23873;DHT22;42884;50.718;4.630;2023-04-24T15:32:39;15.40;99.90
23873;DHT22;42884;50.718;4.630;2023-04-24T15:35:06;15.50;99.90
23873;DHT22;42884;50.718;4.630;2023-04-24T15:37:32;15.30;99.90
23873;DHT22;42884;50.718;4.630;2023-04-24T15:39:58;14.90;99.90